LHPR/QGY METAR and TAF weather

Enter ICAO airport designator
Station Type Date Time Source
LHPR METAR 2019/02/18 04:15 UTC NOAA

LHPR 180415Z AUTO 12002KT CAVOK M02/M02 Q1025 RMK BLU


Station Type Date Time Source
LHPR Decoded METAR 2019/02/18 04:15 UTC NOAA

Station name not available
Feb 17, 2019 - 11:15 PM EST / 2019.02.18 0415 UTC
Wind: from the ESE (120 degrees) at 2 MPH (2 KT):0
Visibility: greater than 7 mile(s):0
Temperature: 28 F (-2 C)
Dew Point: 28 F (-2 C)
Relative Humidity: 100%
Pressure (altimeter): 30.27 in. Hg (1025 hPa)
ob: LHPR 180415Z AUTO 12002KT CAVOK M02/M02 Q1025 RMK BLU
cycle: 4

Station Type Date Time Source
LHPR TAF UTC NOAA

Error!


Example: see airport list